createdAt,value
2018-07-17T00:00:21.379Z,0
2018-07-17T00:01:21.115Z,0
2018-07-17T00:02:20.857Z,0
2018-07-17T00:03:21.107Z,0
2018-07-17T00:04:21.095Z,0
2018-07-17T00:05:21.092Z,0
2018-07-17T00:06:21.339Z,0
2018-07-17T00:07:21.370Z,0
2018-07-17T00:08:21.359Z,0
2018-07-17T00:09:21.367Z,0
2018-07-17T00:10:21.371Z,0
2018-07-17T00:11:21.100Z,0
2018-07-17T00:12:21.109Z,0
2018-07-17T00:13:20.795Z,0
2018-07-17T00:14:21.301Z,0
2018-07-17T00:15:21.030Z,0
2018-07-17T00:16:21.284Z,0
2018-07-17T00:17:21.011Z,0
2018-07-17T00:18:21.264Z,0
2018-07-17T00:19:21.261Z,0
2018-07-17T00:20:21.260Z,0
2018-07-17T00:21:20.999Z,0
2018-07-17T00:22:21.244Z,0
2018-07-17T00:23:21.239Z,0
2018-07-17T00:24:20.977Z,0
2018-07-17T00:25:21.221Z,0
2018-07-17T00:26:21.217Z,0
2018-07-17T00:27:20.955Z,0
2018-07-17T00:28:21.210Z,0
2018-07-17T00:29:21.201Z,0
2018-07-17T00:30:21.189Z,0
2018-07-17T00:31:20.924Z,0
2018-07-17T00:32:21.173Z,0
2018-07-17T00:33:21.169Z,0
2018-07-17T00:34:21.163Z,0
2018-07-17T00:35:21.161Z,0
2018-07-17T00:36:20.892Z,0
2018-07-17T00:37:21.142Z,0
2018-07-17T00:38:20.886Z,0
2018-07-17T00:39:21.134Z,0
2018-07-17T00:40:21.126Z,0
2018-07-17T00:41:21.116Z,0
2018-07-17T00:42:20.852Z,0
2018-07-17T00:43:20.846Z,0
2018-07-17T00:44:20.843Z,0
2018-07-17T00:45:21.091Z,0
2018-07-17T00:46:20.835Z,0
2018-07-17T00:47:21.078Z,0
2018-07-17T00:48:21.078Z,0
2018-07-17T00:49:20.806Z,0
2018-07-17T00:50:20.808Z,0
2018-07-17T00:51:21.051Z,0
2018-07-17T00:52:21.061Z,0
2018-07-17T00:53:20.529Z,0
2018-07-17T00:54:21.037Z,0
2018-07-17T00:55:21.025Z,0
2018-07-17T00:56:21.020Z,0
2018-07-17T00:57:21.014Z,0
2018-07-17T00:58:20.494Z,0
2018-07-17T00:59:20.755Z,0
2018-07-17T01:00:20.996Z,0
2018-07-17T01:01:21.112Z,0
2018-07-17T01:02:20.783Z,0
2018-07-17T01:03:20.720Z,0
2018-07-17T01:04:20.708Z,0
2018-07-17T01:05:20.965Z,0
2018-07-17T01:06:20.701Z,0
2018-07-17T01:07:20.180Z,0
2018-07-17T01:08:20.427Z,0
2018-07-17T01:09:20.421Z,0
2018-07-17T01:10:20.930Z,0
2018-07-17T01:11:20.922Z,0
2018-07-17T01:12:20.916Z,0
2018-07-17T01:13:20.653Z,0
2018-07-17T01:14:20.906Z,0
2018-07-17T01:15:20.638Z,0
2018-07-17T01:16:20.889Z,0
2018-07-17T01:17:20.629Z,0
2018-07-17T01:18:20.620Z,0
2018-07-17T01:19:20.869Z,0
2018-07-17T01:20:20.864Z,0
2018-07-17T01:21:20.863Z,0
2018-07-17T01:22:20.852Z,0
2018-07-17T01:23:20.847Z,0
2018-07-17T01:24:20.580Z,0
2018-07-17T01:25:20.828Z,0
2018-07-17T01:26:20.823Z,0
2018-07-17T01:27:20.820Z,0
2018-07-17T01:28:20.297Z,0
2018-07-17T01:29:20.803Z,0
2018-07-17T01:30:20.803Z,0
2018-07-17T01:31:20.533Z,0
2018-07-17T01:32:20.799Z,0
2018-07-17T01:33:20.526Z,0
2018-07-17T01:34:20.253Z,0
2018-07-17T01:35:20.763Z,0
2018-07-17T01:36:20.755Z,0
2018-07-17T01:37:20.748Z,0
2018-07-17T01:38:21.043Z,0
2018-07-17T01:39:20.221Z,0
2018-07-17T01:40:20.482Z,0
2018-07-17T01:41:20.726Z,0
2018-07-17T01:42:20.470Z,0
2018-07-17T01:43:20.715Z,0
2018-07-17T01:44:20.184Z,0
2018-07-17T01:45:20.701Z,0
2018-07-17T01:46:20.743Z,0
2018-07-17T01:47:20.681Z,0
2018-07-17T01:48:20.671Z,0
2018-07-17T01:49:20.668Z,0
2018-07-17T01:50:20.147Z,0
2018-07-17T01:51:20.656Z,0
2018-07-17T01:52:20.388Z,0
2018-07-17T01:53:20.652Z,0
2018-07-17T01:54:20.640Z,0
2018-07-17T01:55:20.379Z,0
2018-07-17T01:56:20.363Z,0
2018-07-17T01:57:20.366Z,0
2018-07-17T01:58:20.603Z,0
2018-07-17T01:59:20.594Z,0
2018-07-17T02:00:20.592Z,0
2018-07-17T02:01:20.327Z,0
2018-07-17T02:02:20.068Z,0
2018-07-17T02:03:20.570Z,0
2018-07-17T02:04:20.304Z,0
2018-07-17T02:05:20.300Z,0
2018-07-17T02:06:20.291Z,0
2018-07-17T02:07:20.285Z,0
2018-07-17T02:08:20.534Z,0
2018-07-17T02:09:20.270Z,0
2018-07-17T02:10:20.521Z,0
2018-07-17T02:11:20.257Z,0
2018-07-17T02:12:20.510Z,0
2018-07-17T02:13:19.990Z,0
2018-07-17T02:14:20.233Z,0
2018-07-17T02:15:20.231Z,0
2018-07-17T02:16:20.228Z,0
2018-07-17T02:17:20.477Z,0
2018-07-17T02:18:19.950Z,0
2018-07-17T02:19:20.202Z,0
2018-07-17T02:20:19.936Z,0
2018-07-17T02:21:19.932Z,0
2018-07-17T02:22:20.209Z,0
2018-07-17T02:23:20.448Z,0
2018-07-17T02:24:20.178Z,0
2018-07-17T02:25:20.161Z,0
2018-07-17T02:26:20.152Z,0
2018-07-17T02:27:20.140Z,0
2018-07-17T02:28:19.885Z,0
2018-07-17T02:29:20.384Z,0
2018-07-17T02:30:20.390Z,0
2018-07-17T02:31:19.861Z,0
2018-07-17T02:32:19.853Z,0
2018-07-17T02:33:20.365Z,0
2018-07-17T02:34:20.107Z,0
2018-07-17T02:35:19.839Z,0
2018-07-17T02:36:19.569Z,0
2018-07-17T02:37:20.335Z,0
2018-07-17T02:38:20.325Z,0
2018-07-17T02:39:20.315Z,0
2018-07-17T02:40:20.307Z,4
2018-07-17T02:41:20.317Z,4
2018-07-17T02:42:20.432Z,4
2018-07-17T02:43:20.029Z,4
2018-07-17T02:44:20.284Z,0
2018-07-17T02:45:20.032Z,4
2018-07-17T02:46:20.274Z,4
2018-07-17T02:47:20.262Z,8
2018-07-17T02:48:20.251Z,4
2018-07-17T02:49:20.245Z,8
2018-07-17T02:50:20.237Z,8
2018-07-17T02:51:19.977Z,8
2018-07-17T02:52:20.244Z,12
2018-07-17T02:53:19.963Z,12
2018-07-17T02:54:19.960Z,12
2018-07-17T02:55:20.225Z,16
2018-07-17T02:56:19.950Z,16
2018-07-17T02:57:19.935Z,20
2018-07-17T02:58:19.926Z,24
2018-07-17T02:59:19.661Z,24
2018-07-17T03:00:19.922Z,28
2018-07-17T03:01:20.165Z,32
2018-07-17T03:02:19.894Z,40
2018-07-17T03:03:20.154Z,44
2018-07-17T03:04:19.885Z,48
2018-07-17T03:05:19.878Z,52
2018-07-17T03:06:19.873Z,56
2018-07-17T03:07:20.264Z,64
2018-07-17T03:08:19.925Z,68
2018-07-17T03:09:19.855Z,76
2018-07-17T03:10:19.835Z,80
2018-07-17T03:11:20.093Z,88
2018-07-17T03:12:20.104Z,96
2018-07-17T03:13:19.821Z,108
2018-07-17T03:14:19.808Z,116
2018-07-17T03:15:20.061Z,124
2018-07-17T03:16:19.799Z,136
2018-07-17T03:17:20.047Z,144
2018-07-17T03:18:20.042Z,160
2018-07-17T03:19:19.774Z,168
2018-07-17T03:20:20.032Z,184
2018-07-17T03:21:19.766Z,200
2018-07-17T03:22:19.756Z,212
2018-07-17T03:23:19.750Z,228
2018-07-17T03:24:19.754Z,240
2018-07-17T03:25:19.992Z,256
2018-07-17T03:26:19.980Z,276
2018-07-17T03:27:19.713Z,288
2018-07-17T03:28:19.966Z,308
2018-07-17T03:29:19.959Z,332
2018-07-17T03:30:19.986Z,352
2018-07-17T03:31:19.949Z,372
2018-07-17T03:32:19.679Z,396
2018-07-17T03:33:19.931Z,424
2018-07-17T03:34:19.664Z,448
2018-07-17T03:35:19.657Z,468
2018-07-17T03:36:19.681Z,496
2018-07-17T03:37:19.903Z,536
2018-07-17T03:38:19.636Z,576
2018-07-17T03:39:19.886Z,632
2018-07-17T03:40:19.365Z,692
2018-07-17T03:41:19.874Z,752
2018-07-17T03:42:19.861Z,804
2018-07-17T03:43:19.599Z,848
2018-07-17T03:44:19.589Z,884
2018-07-17T03:45:19.843Z,908
2018-07-17T03:46:19.842Z,928
2018-07-17T03:47:19.316Z,956
2018-07-17T03:48:19.886Z,988
2018-07-17T03:49:19.818Z,1044
2018-07-17T03:50:19.807Z,1096
2018-07-17T03:51:19.817Z,1144
2018-07-17T03:52:19.599Z,1176
2018-07-17T03:53:19.524Z,1200
2018-07-17T03:54:19.774Z,1216
2018-07-17T03:55:19.769Z,1252
2018-07-17T03:56:19.805Z,1296
2018-07-17T03:57:19.241Z,1344
2018-07-17T03:58:19.749Z,1400
2018-07-17T03:59:19.741Z,1448
2018-07-17T04:00:19.731Z,1492
2018-07-17T04:01:19.722Z,1536
2018-07-17T04:02:19.465Z,1576
2018-07-17T04:03:19.710Z,1616
2018-07-17T04:04:19.560Z,1660
2018-07-17T04:05:19.704Z,1704
2018-07-17T04:06:19.689Z,1748
2018-07-17T04:07:19.732Z,1784
2018-07-17T04:08:19.418Z,1812
2018-07-17T04:09:19.670Z,1852
2018-07-17T04:10:19.660Z,1896
2018-07-17T04:11:19.653Z,1932
2018-07-17T04:12:19.649Z,1968
2018-07-17T04:13:19.690Z,1996
2018-07-17T04:14:19.118Z,2016
2018-07-17T04:15:19.627Z,2040
2018-07-17T04:16:19.109Z,2068
2018-07-17T04:17:19.360Z,2108
2018-07-17T04:18:19.602Z,2152
2018-07-17T04:19:19.594Z,2196
2018-07-17T04:20:19.596Z,2228
2018-07-17T04:21:19.582Z,2260
2018-07-17T04:22:19.615Z,2288
2018-07-17T04:23:19.570Z,2316
2018-07-17T04:24:19.561Z,2332
2018-07-17T04:25:19.555Z,2356
2018-07-17T04:26:19.555Z,2384
2018-07-17T04:27:19.547Z,2412
2018-07-17T04:28:19.541Z,2444
2018-07-17T04:29:19.272Z,2484
2018-07-17T04:30:19.263Z,2528
2018-07-17T04:31:19.512Z,2564
2018-07-17T04:32:19.505Z,2608
2018-07-17T04:33:19.505Z,2660
2018-07-17T04:34:19.497Z,2712
2018-07-17T04:35:19.486Z,2760
2018-07-17T04:36:19.478Z,2808
2018-07-17T04:37:19.215Z,2856
2018-07-17T04:38:19.559Z,2900
2018-07-17T04:39:19.462Z,2948
2018-07-17T04:40:19.456Z,3000
2018-07-17T04:41:19.448Z,3032
2018-07-17T04:42:19.184Z,3076
2018-07-17T04:43:19.435Z,3108
2018-07-17T04:44:19.867Z,3148
2018-07-17T04:45:19.163Z,3200
2018-07-17T04:46:19.156Z,3220
2018-07-17T04:47:19.147Z,3216
2018-07-17T04:48:19.402Z,3200
2018-07-17T04:49:19.138Z,3196
2018-07-17T04:50:19.390Z,3208
2018-07-17T04:51:19.384Z,3220
2018-07-17T04:52:19.380Z,3244
2018-07-17T04:53:19.110Z,3272
2018-07-17T04:54:19.367Z,3308
2018-07-17T04:55:19.099Z,3332
2018-07-17T04:56:19.095Z,3360
2018-07-17T04:57:19.087Z,3396
2018-07-17T04:58:19.334Z,3448
2018-07-17T04:59:19.329Z,3492
2018-07-17T05:00:19.325Z,3528
2018-07-17T05:01:19.317Z,3548
2018-07-17T05:02:19.318Z,3564
2018-07-17T05:03:19.326Z,3580
2018-07-17T05:04:19.042Z,3600
2018-07-17T05:05:19.318Z,3636
2018-07-17T05:06:19.288Z,3684
2018-07-17T05:07:19.030Z,3768
2018-07-17T05:08:19.274Z,3844
2018-07-17T05:09:19.267Z,3888
2018-07-17T05:10:19.006Z,3896
2018-07-17T05:11:18.743Z,3892
2018-07-17T05:12:18.993Z,3884
2018-07-17T05:13:19.254Z,3864
2018-07-17T05:14:19.256Z,3860
2018-07-17T05:15:18.722Z,3868
2018-07-17T05:16:19.008Z,3896
2018-07-17T05:17:18.711Z,3916
2018-07-17T05:18:18.960Z,3932
2018-07-17T05:19:19.218Z,3924
2018-07-17T05:20:19.052Z,3916
2018-07-17T05:21:19.006Z,3920
2018-07-17T05:22:19.218Z,3916
2018-07-17T05:23:18.959Z,3916
2018-07-17T05:24:18.670Z,3932
2018-07-17T05:25:18.414Z,3956
2018-07-17T05:26:19.172Z,3968
2018-07-17T05:27:19.169Z,3964
2018-07-17T05:28:18.910Z,3964
2018-07-17T05:29:19.167Z,3976
2018-07-17T05:30:19.156Z,3996
2018-07-17T05:31:19.155Z,4044
2018-07-17T05:32:18.886Z,4080
2018-07-17T05:33:19.135Z,4096
2018-07-17T05:34:19.142Z,4108
2018-07-17T05:35:19.219Z,4120
2018-07-17T05:36:19.209Z,4156
2018-07-17T05:37:19.127Z,4208
2018-07-17T05:38:18.859Z,4252
2018-07-17T05:39:19.104Z,4288
2018-07-17T05:40:18.850Z,4328
2018-07-17T05:41:19.103Z,4376
2018-07-17T05:42:18.839Z,4460
2018-07-17T05:43:19.094Z,4564
2018-07-17T05:44:18.835Z,4672
2018-07-17T05:45:18.565Z,4692
2018-07-17T05:46:19.076Z,4504
2018-07-17T05:47:19.104Z,4420
2018-07-17T05:48:18.810Z,4404
2018-07-17T05:49:19.063Z,4396
2018-07-17T05:50:19.062Z,4392
2018-07-17T05:51:19.062Z,4400
2018-07-17T05:52:19.046Z,4380
2018-07-17T05:53:19.041Z,4364
2018-07-17T05:54:18.782Z,4368
2018-07-17T05:55:19.035Z,4416
2018-07-17T05:56:19.036Z,4512
2018-07-17T05:57:19.028Z,4600
2018-07-17T05:58:19.027Z,4612
2018-07-17T05:59:18.767Z,4580
2018-07-17T06:00:18.765Z,4548
2018-07-17T06:01:18.757Z,4528
2018-07-17T06:02:19.004Z,4520
2018-07-17T06:03:19.253Z,4524
2018-07-17T06:04:19.057Z,4532
2018-07-17T06:05:18.746Z,4552
2018-07-17T06:06:18.738Z,4584
2018-07-17T06:07:18.990Z,4612
2018-07-17T06:08:18.983Z,4636
2018-07-17T06:09:18.720Z,4652
2018-07-17T06:10:19.218Z,4660
2018-07-17T06:11:18.713Z,4692
2018-07-17T06:12:18.713Z,4716
2018-07-17T06:13:18.968Z,4736
2018-07-17T06:14:18.958Z,4752
2018-07-17T06:15:18.958Z,4776
2018-07-17T06:16:18.700Z,4808
2018-07-17T06:17:18.695Z,4844
2018-07-17T06:18:18.689Z,4872
2018-07-17T06:19:18.947Z,4888
2018-07-17T06:20:18.456Z,4888
2018-07-17T06:21:18.428Z,4892
2018-07-17T06:22:19.270Z,4896
2018-07-17T06:23:18.685Z,4904
2018-07-17T06:24:18.935Z,4916
2018-07-17T06:25:18.924Z,4936
2018-07-17T06:26:18.924Z,4952
2018-07-17T06:27:18.917Z,4956
2018-07-17T06:28:18.660Z,4968
2018-07-17T06:29:18.663Z,4980
2018-07-17T06:30:18.653Z,5028
2018-07-17T06:31:18.650Z,5080
2018-07-17T06:32:18.910Z,5136
2018-07-17T06:33:18.645Z,5176
2018-07-17T06:34:18.921Z,5216
2018-07-17T06:35:18.894Z,5252
2018-07-17T06:36:18.895Z,5280
2018-07-17T06:37:18.892Z,5352
2018-07-17T06:38:18.890Z,5592
2018-07-17T06:39:18.686Z,7364
2018-07-17T06:40:18.659Z,9680
2018-07-17T06:41:18.621Z,9252
2018-07-17T06:42:18.880Z,9728
2018-07-17T06:43:18.617Z,10508
2018-07-17T06:44:18.614Z,16768
2018-07-17T06:45:18.613Z,20672
2018-07-17T06:46:18.866Z,24480
2018-07-17T06:47:18.606Z,29184
2018-07-17T06:48:18.602Z,28512
2018-07-17T06:49:18.598Z,30880
2018-07-17T06:50:19.453Z,39296
2018-07-17T06:51:18.862Z,40896
2018-07-17T06:52:18.611Z,29344
2018-07-17T06:53:18.598Z,28736
2018-07-17T06:54:18.593Z,35104
2018-07-17T06:55:18.595Z,31104
2018-07-17T06:56:18.858Z,30912
2018-07-17T06:57:18.916Z,33248
2018-07-17T06:58:18.746Z,36896
2018-07-17T06:59:18.849Z,41888
2018-07-17T07:00:18.863Z,45888
2018-07-17T07:01:18.852Z,46400
2018-07-17T07:02:18.591Z,46048
2018-07-17T07:03:18.857Z,48160
2018-07-17T07:04:18.596Z,48832
2018-07-17T07:05:18.829Z,45632
2018-07-17T07:06:18.598Z,45056
2018-07-17T07:07:18.602Z,46048
2018-07-17T07:08:18.348Z,47328
2018-07-17T07:09:18.607Z,48608
2018-07-17T07:10:18.624Z,51232
2018-07-17T07:11:18.719Z,48384
2018-07-17T07:12:18.879Z,44000
2018-07-17T07:13:18.675Z,44000
2018-07-17T07:14:18.894Z,46176
2018-07-17T07:15:18.893Z,47520
2018-07-17T07:16:18.633Z,47904
2018-07-17T07:17:18.905Z,46432
2018-07-17T07:18:18.648Z,46176
2018-07-17T07:19:18.904Z,46528
2018-07-17T07:20:18.914Z,43968
2018-07-17T07:21:18.401Z,47040
2018-07-17T07:22:18.923Z,45408
2018-07-17T07:23:19.057Z,21760
2018-07-17T07:24:18.936Z,44128
2018-07-17T07:25:18.938Z,48512
2018-07-17T07:26:18.944Z,48960
2018-07-17T07:27:18.957Z,51552
2018-07-17T07:28:18.962Z,50336
2018-07-17T07:29:19.019Z,46336
2018-07-17T07:30:18.979Z,40320
2018-07-17T07:31:18.981Z,44032
2018-07-17T07:32:18.994Z,50848
2018-07-17T07:33:19.000Z,54240
2018-07-17T07:34:18.747Z,48928
2018-07-17T07:35:18.759Z,51936
2018-07-17T07:36:19.014Z,51424
2018-07-17T07:37:18.575Z,53984
2018-07-17T07:38:19.036Z,53216
2018-07-17T07:39:18.267Z,41504
2018-07-17T07:40:19.052Z,25120
2018-07-17T07:41:18.797Z,51520
2018-07-17T07:42:19.064Z,59168
2018-07-17T07:43:18.814Z,60416
2018-07-17T07:44:18.827Z,58048
2018-07-17T07:45:19.092Z,17856
2018-07-17T07:46:19.101Z,37504
2018-07-17T07:47:18.596Z,34144
2018-07-17T07:48:19.112Z,29504
2018-07-17T07:49:19.570Z,39584
2018-07-17T07:50:19.126Z,52160
2018-07-17T07:51:19.157Z,37792
2018-07-17T07:52:18.884Z,16028
2018-07-17T07:53:19.146Z,9476
2018-07-17T07:54:19.155Z,8704
2018-07-17T07:55:18.909Z,8132
2018-07-17T07:56:19.174Z,7796
2018-07-17T07:57:18.926Z,7756
2018-07-17T07:58:19.191Z,8796
2018-07-17T07:59:19.202Z,8680
2018-07-17T08:00:19.207Z,7652
2018-07-17T08:01:19.207Z,7008
2018-07-17T08:02:18.960Z,6652
2018-07-17T08:03:18.967Z,6528
2018-07-17T08:04:19.231Z,6432
2018-07-17T08:05:19.249Z,6348
2018-07-17T08:06:19.256Z,6292
2018-07-17T08:07:19.258Z,6216
2018-07-17T08:08:19.010Z,6108
2018-07-17T08:09:19.270Z,6044
2018-07-17T08:10:19.279Z,6020
2018-07-17T08:11:19.298Z,6016
2018-07-17T08:12:19.023Z,6012
2018-07-17T08:13:18.784Z,6008
2018-07-17T08:14:19.041Z,6032
2018-07-17T08:15:19.056Z,6052
2018-07-17T08:16:19.322Z,6036
2018-07-17T08:17:19.061Z,6008
2018-07-17T08:18:19.328Z,5988
2018-07-17T08:19:19.073Z,6004
2018-07-17T08:20:19.337Z,5972
2018-07-17T08:21:19.340Z,5928
2018-07-17T08:22:19.091Z,5928
2018-07-17T08:23:19.099Z,5952
2018-07-17T08:24:19.605Z,6004
2018-07-17T08:25:19.106Z,6036
2018-07-17T08:26:19.365Z,6036
2018-07-17T08:27:19.388Z,6016
2018-07-17T08:28:19.387Z,6000
2018-07-17T08:29:19.387Z,6040
2018-07-17T08:30:19.129Z,6052
2018-07-17T08:31:19.398Z,6100
2018-07-17T08:32:19.403Z,6228
2018-07-17T08:33:19.401Z,6296
2018-07-17T08:34:19.403Z,6252
2018-07-17T08:35:19.154Z,6180
2018-07-17T08:36:19.156Z,6092
2018-07-17T08:37:19.157Z,6032
2018-07-17T08:38:19.170Z,5944
2018-07-17T08:39:19.169Z,5912
2018-07-17T08:40:19.171Z,5868
2018-07-17T08:41:19.435Z,5844
2018-07-17T08:42:18.920Z,5812
2018-07-17T08:43:19.452Z,5752
2018-07-17T08:44:19.191Z,5724
2018-07-17T08:45:19.194Z,5660
2018-07-17T08:46:19.454Z,5616
2018-07-17T08:47:19.453Z,5568
2018-07-17T08:48:19.196Z,5480
2018-07-17T08:49:19.344Z,5356
2018-07-17T08:50:19.467Z,5308
2018-07-17T08:51:19.482Z,5312
2018-07-17T08:52:19.214Z,5292
2018-07-17T08:53:19.478Z,5280
2018-07-17T08:54:19.493Z,5244
2018-07-17T08:55:18.966Z,5228
2018-07-17T08:56:19.510Z,5236
2018-07-17T08:57:19.483Z,5236
2018-07-17T08:58:19.228Z,5276
2018-07-17T08:59:19.491Z,5360
2018-07-17T09:00:19.618Z,5424
2018-07-17T09:01:19.496Z,5464
2018-07-17T09:02:18.989Z,5500
2018-07-17T09:03:19.497Z,5496
2018-07-17T09:04:19.247Z,5520
2018-07-17T09:05:19.512Z,5580
2018-07-17T09:06:19.521Z,5960
2018-07-17T09:07:19.513Z,6524
2018-07-17T09:08:19.262Z,6920
2018-07-17T09:09:19.522Z,5876
2018-07-17T09:10:19.517Z,4340
2018-07-17T09:11:19.007Z,4292
2018-07-17T09:12:19.266Z,5500
2018-07-17T09:13:19.499Z,6068
2018-07-17T09:14:19.534Z,6408
2018-07-17T09:15:19.541Z,6624
2018-07-17T09:16:19.541Z,6224
2018-07-17T09:17:19.543Z,6108
2018-07-17T09:18:19.542Z,6504
2018-07-17T09:19:19.030Z,6676
2018-07-17T09:20:19.549Z,7764
2018-07-17T09:21:19.291Z,7476
2018-07-17T09:22:19.298Z,8196
2018-07-17T09:23:19.299Z,6364
2018-07-17T09:24:19.300Z,6100
2018-07-17T09:25:19.348Z,5748
2018-07-17T09:26:19.306Z,6040
2018-07-17T09:27:19.315Z,7392
2018-07-17T09:28:19.554Z,6960
2018-07-17T09:29:19.572Z,6564
2018-07-17T09:30:19.584Z,6652
2018-07-17T09:31:19.587Z,7340
2018-07-17T09:32:19.593Z,7280
2018-07-17T09:33:18.814Z,8620
2018-07-17T09:34:19.606Z,9436
2018-07-17T09:35:19.334Z,8840
2018-07-17T09:36:19.079Z,6868
2018-07-17T09:37:19.346Z,5484
2018-07-17T09:38:19.598Z,5136
2018-07-17T09:39:19.605Z,4924
2018-07-17T09:40:19.602Z,5064
2018-07-17T09:41:19.614Z,5336
2018-07-17T09:42:19.358Z,5592
2018-07-17T09:43:19.614Z,5624
2018-07-17T09:44:19.805Z,5272
2018-07-17T09:45:19.619Z,4924
2018-07-17T09:46:19.374Z,4900
2018-07-17T09:47:19.630Z,5116
2018-07-17T09:48:19.635Z,5380
2018-07-17T09:49:19.372Z,5140
2018-07-17T09:50:19.379Z,5264
2018-07-17T09:51:19.382Z,5624
2018-07-17T09:52:19.642Z,6008
2018-07-17T09:53:19.648Z,6464
2018-07-17T09:54:19.904Z,6476
2018-07-17T09:55:19.652Z,6268
2018-07-17T09:56:19.653Z,6556
2018-07-17T09:57:19.660Z,6436
2018-07-17T09:58:19.660Z,5276
2018-07-17T09:59:19.661Z,5780
2018-07-17T10:00:19.666Z,5608
2018-07-17T10:01:19.462Z,5348
2018-07-17T10:02:19.668Z,5236
2018-07-17T10:03:19.426Z,5260
2018-07-17T10:04:19.684Z,5436
2018-07-17T10:05:19.679Z,5628
2018-07-17T10:06:19.608Z,5728
2018-07-17T10:07:19.435Z,5832
2018-07-17T10:08:19.745Z,5780
2018-07-17T10:09:19.725Z,5944
2018-07-17T10:10:19.441Z,6404
2018-07-17T10:11:19.709Z,6680
2018-07-17T10:12:19.699Z,6936
2018-07-17T10:13:19.708Z,6944
2018-07-17T10:14:19.709Z,6288
2018-07-17T10:15:19.719Z,5520
2018-07-17T10:16:19.713Z,5272
2018-07-17T10:17:19.724Z,4668
2018-07-17T10:18:19.465Z,4092
2018-07-17T10:19:19.216Z,4428
2018-07-17T10:20:19.960Z,5420
2018-07-17T10:21:19.220Z,5384
2018-07-17T10:22:19.739Z,5932
2018-07-17T10:23:19.742Z,6664
2018-07-17T10:24:19.488Z,7532
2018-07-17T10:25:19.491Z,8176
2018-07-17T10:26:19.671Z,8496
2018-07-17T10:27:19.759Z,8936
2018-07-17T10:28:19.759Z,9980
2018-07-17T10:29:19.780Z,10624
2018-07-17T10:30:19.519Z,9972
2018-07-17T10:31:19.516Z,9608
2018-07-17T10:32:19.728Z,8548
2018-07-17T10:33:19.520Z,7564
2018-07-17T10:34:19.271Z,7076
2018-07-17T10:35:19.529Z,5956
2018-07-17T10:36:19.796Z,5104
2018-07-17T10:37:19.536Z,5140
2018-07-17T10:38:19.857Z,4680
2018-07-17T10:39:19.799Z,5248
2018-07-17T10:40:19.546Z,4452
2018-07-17T10:41:19.805Z,4972
2018-07-17T10:42:19.554Z,4964
2018-07-17T10:43:19.564Z,5140
2018-07-17T10:44:19.560Z,5496
2018-07-17T10:45:19.564Z,5776
2018-07-17T10:46:19.574Z,6104
2018-07-17T10:47:19.826Z,6540
2018-07-17T10:48:19.832Z,7128
2018-07-17T10:49:19.323Z,7676
2018-07-17T10:50:19.584Z,7664
2018-07-17T10:51:19.585Z,7396
2018-07-17T10:52:19.847Z,7804
2018-07-17T10:53:19.917Z,8584
2018-07-17T10:54:19.340Z,9092
2018-07-17T10:55:19.346Z,9740
2018-07-17T10:56:19.602Z,9580
2018-07-17T10:57:19.869Z,9576
2018-07-17T10:58:19.870Z,9520
2018-07-17T10:59:19.618Z,8716
2018-07-17T11:00:19.620Z,8412
2018-07-17T11:01:19.627Z,8172
2018-07-17T11:02:19.375Z,7736
2018-07-17T11:03:19.631Z,7484
2018-07-17T11:04:19.891Z,7472
2018-07-17T11:05:19.436Z,7420
2018-07-17T11:06:19.385Z,7120
2018-07-17T11:07:19.395Z,6204
2018-07-17T11:08:20.007Z,5664
2018-07-17T11:09:19.667Z,4688
2018-07-17T11:10:19.660Z,3696
2018-07-17T11:11:19.669Z,3532
2018-07-17T11:12:19.923Z,4044
2018-07-17T11:13:19.415Z,4080
2018-07-17T11:14:19.930Z,4864
2018-07-17T11:15:19.935Z,5084
2018-07-17T11:16:19.956Z,5336
2018-07-17T11:17:19.944Z,5584
2018-07-17T11:18:19.442Z,5696
2018-07-17T11:19:19.696Z,5776
2018-07-17T11:20:19.704Z,5900
2018-07-17T11:21:19.961Z,6208
2018-07-17T11:22:19.712Z,6300
2018-07-17T11:23:19.967Z,6456
2018-07-17T11:24:19.464Z,6184
2018-07-17T11:25:19.983Z,5216
2018-07-17T11:26:19.979Z,4848
2018-07-17T11:27:19.983Z,4924
2018-07-17T11:28:19.992Z,4416
2018-07-17T11:29:19.480Z,4592
2018-07-17T11:30:20.007Z,4676
2018-07-17T11:31:19.997Z,5040
2018-07-17T11:32:20.009Z,5064
2018-07-17T11:33:19.495Z,4764
2018-07-17T11:34:19.753Z,4792
2018-07-17T11:35:19.762Z,4572
2018-07-17T11:36:20.024Z,4396
2018-07-17T11:37:20.028Z,4592
2018-07-17T11:38:19.782Z,4828
2018-07-17T11:39:20.035Z,4940
2018-07-17T11:40:20.045Z,4932
2018-07-17T11:41:19.781Z,4904
2018-07-17T11:42:19.786Z,4848
2018-07-17T11:43:20.104Z,4772
2018-07-17T11:44:20.053Z,4860
2018-07-17T11:45:19.809Z,5196
2018-07-17T11:46:19.804Z,4960
2018-07-17T11:47:19.807Z,5340
2018-07-17T11:48:20.079Z,5272
2018-07-17T11:49:20.074Z,5980
2018-07-17T11:50:20.077Z,6652
2018-07-17T11:51:20.090Z,6772
2018-07-17T11:52:20.085Z,6720
2018-07-17T11:53:20.000Z,6612
2018-07-17T11:54:20.086Z,5864
2018-07-17T11:55:20.105Z,5664
2018-07-17T11:56:20.095Z,5144
2018-07-17T11:57:20.099Z,4800
2018-07-17T11:58:19.858Z,4588
2018-07-17T11:59:19.853Z,4380
2018-07-17T12:00:20.112Z,3608
2018-07-17T12:01:20.121Z,3956
2018-07-17T12:02:19.863Z,3868
2018-07-17T12:03:19.874Z,4448
2018-07-17T12:04:20.128Z,4532
2018-07-17T12:05:20.129Z,4400
2018-07-17T12:06:19.883Z,4312
2018-07-17T12:07:20.139Z,4280
2018-07-17T12:08:20.193Z,4248
2018-07-17T12:09:19.891Z,4196
2018-07-17T12:10:19.895Z,4136
2018-07-17T12:11:19.911Z,4124
2018-07-17T12:12:19.645Z,4132
2018-07-17T12:13:20.171Z,4184
2018-07-17T12:14:19.906Z,4396
2018-07-17T12:15:19.915Z,4840
2018-07-17T12:16:20.173Z,5284
2018-07-17T12:17:19.665Z,5292
2018-07-17T12:18:19.670Z,5272
2018-07-17T12:19:19.926Z,5448
2018-07-17T12:20:20.399Z,5524
2018-07-17T12:21:20.190Z,5704
2018-07-17T12:22:20.214Z,5476
2018-07-17T12:23:20.207Z,5100
2018-07-17T12:24:20.202Z,5068
2018-07-17T12:25:19.954Z,5184
2018-07-17T12:26:20.222Z,5144
2018-07-17T12:27:20.235Z,5032
2018-07-17T12:28:20.223Z,4932
2018-07-17T12:29:19.966Z,4980
2018-07-17T12:30:20.228Z,5076
2018-07-17T12:31:19.974Z,4724
2018-07-17T12:32:20.244Z,4708
2018-07-17T12:33:19.725Z,4612
2018-07-17T12:34:19.989Z,4692
2018-07-17T12:35:20.251Z,4756
2018-07-17T12:36:20.254Z,4848
2018-07-17T12:37:19.744Z,4888
2018-07-17T12:38:19.755Z,4832
2018-07-17T12:39:20.006Z,4596
2018-07-17T12:40:19.762Z,5532
2018-07-17T12:41:20.269Z,4700
2018-07-17T12:42:20.287Z,4408
2018-07-17T12:43:20.285Z,4748
2018-07-17T12:44:20.179Z,5392
2018-07-17T12:45:20.288Z,6488
2018-07-17T12:46:20.292Z,6788
2018-07-17T12:47:20.042Z,6416
2018-07-17T12:48:20.298Z,5896
2018-07-17T12:49:20.048Z,6000
2018-07-17T12:50:20.054Z,6304
2018-07-17T12:51:20.316Z,6272
2018-07-17T12:52:20.320Z,5448
2018-07-17T12:53:20.319Z,4436
2018-07-17T12:54:20.326Z,4228
2018-07-17T12:55:20.072Z,4212
2018-07-17T12:56:20.659Z,4208
2018-07-17T12:57:20.333Z,4248
2018-07-17T12:58:20.341Z,4244
2018-07-17T12:59:20.346Z,4200
2018-07-17T13:00:20.351Z,3724
2018-07-17T13:01:19.837Z,4312
2018-07-17T13:02:20.363Z,4480
2018-07-17T13:03:20.112Z,4708
2018-07-17T13:04:20.113Z,4664
2018-07-17T13:05:20.115Z,5372
2018-07-17T13:06:20.120Z,4688
2018-07-17T13:07:20.377Z,4700
2018-07-17T13:08:20.385Z,4540
2018-07-17T13:09:20.556Z,4724
2018-07-17T13:10:20.393Z,4108
2018-07-17T13:11:20.393Z,4472
2018-07-17T13:12:20.406Z,4492
2018-07-17T13:13:20.407Z,4080
2018-07-17T13:14:20.415Z,3876
2018-07-17T13:15:20.150Z,4032
2018-07-17T13:16:19.903Z,4252
2018-07-17T13:17:20.217Z,4016
2018-07-17T13:18:20.426Z,3888
2018-07-17T13:19:20.167Z,3756
2018-07-17T13:20:20.175Z,4192
2018-07-17T13:21:20.436Z,4148
2018-07-17T13:22:19.923Z,3724
2018-07-17T13:23:20.443Z,4088
2018-07-17T13:24:20.189Z,3624
2018-07-17T13:25:20.459Z,3652
2018-07-17T13:26:20.198Z,4128
2018-07-17T13:27:20.459Z,4220
2018-07-17T13:28:20.458Z,4312
2018-07-17T13:29:19.953Z,4404
2018-07-17T13:30:20.211Z,4580
2018-07-17T13:31:20.219Z,4728
2018-07-17T13:32:20.222Z,4796
2018-07-17T13:33:19.969Z,4908
2018-07-17T13:34:20.484Z,5116
2018-07-17T13:35:20.488Z,5420